Flight Track Log - Related Links

Times and Time Zones

All times are in EDT time to prevent confusion due to time zone crossing. See the DAL1029 flight status page for this flight to view local times or setup timezone preferences in your user account.

Time Position Orientation Groundspeed Altitude Reporting Facility
EDT Latitude Longitude Course Direction KTS MPH feet Rate Location/Type
Thu 11:41:12 AM 44.8333 -93.2333 120° Southeast 170 196 2,400  Level Minneapolis TRACON
Thu 11:42:39 AM 44.7503 -93.2264 177° South 249 287 5,600 2,577 Climbing Minneapolis Center
Thu 11:43:00 AM 44.5973 -92.9515 145° Southeast  Level Estimated
Thu 11:43:41 AM 44.6786 -93.2158 174° South 267 307 8,800  Level Minneapolis Center
Thu 11:44:00 AM 44.5022 -92.8620 137° Southeast  Level Estimated
Thu 11:44:43 AM 44.6103 -93.1456 144° Southeast 311 358 11,000  Level Minneapolis Center
Thu 11:45:00 AM 44.4071 -92.7728 115° Southeast  Level Estimated
Thu 11:45:45 AM 44.5592 -93.0178 119° Southeast 387 445 12,600  Level Minneapolis Center
Thu 11:46:00 AM 44.3119 -92.6839 120° Southeast  Level Estimated
Thu 11:46:47 AM 44.4967 -92.8514 118° Southeast 402 463 16,400  Level Minneapolis Center
Thu 11:47:49 AM 44.4447 -92.7186 119° Southeast 393 452 18,700 2,081 Climbing Minneapolis Center
Thu 11:48:51 AM 44.3911 -92.5783 118° Southeast 406 467 20,700 1,824 Climbing Minneapolis Center
Thu 11:49:54 AM 44.3350 -92.4347 119° Southeast 420 483 22,500 1,728 Climbing Minneapolis Center
Thu 11:50:56 AM 44.2728 -92.2914 121° Southeast 432 497 24,300 1,839 Climbing Minneapolis Center
Thu 11:51:58 AM 44.1956 -92.1158 121° Southeast 443 510 26,300 1,306 Climbing Minneapolis Center
Thu 11:53:00 AM 44.1292 -91.9633 121° Southeast 457 526 27,000 823 Climbing Minneapolis Center
Thu 11:54:02 AM 44.0589 -91.8017 121° Southeast 481 554 28,000 1,016 Climbing Minneapolis Center
Thu 11:55:04 AM 43.9928 -91.6517 121° Southeast 494 568 29,100 1,548 Climbing Minneapolis Center
Thu 11:56:06 AM 43.9047 -91.4578 122° Southeast 498 573 31,200 1,751 Climbing Minneapolis Center
Thu 11:58:09 AM 43.7169 -91.1944 135° Southeast 482 555 34,500 1,452 Climbing Chicago Center
Thu 11:59:12 AM 43.6250 -91.0656 135° Southeast 477 549 35,700 1,161 Climbing Minneapolis Center
Thu 12:00:13 PM 43.5319 -90.9372 135° Southeast 475 547 36,900 629 Climbing Chicago Center
Thu 12:01:16 PM 43.4211 -90.7825 135° Southeast 475 547 37,000 48 Climbing Minneapolis Center
Thu 12:02:17 PM 43.3306 -90.6583 135° Southeast 469 540 37,000  Level Chicago Center
Thu 12:03:19 PM 43.2383 -90.5331 135° Southeast 468 539 37,000  Level Chicago Center
Thu 12:04:21 PM 43.1453 -90.4069 135° Southeast 471 542 37,000  Level Chicago Center
Thu 12:05:23 PM 43.0522 -90.2817 135° Southeast 471 542 37,000  Level Chicago Center
Thu 12:06:25 PM 42.9583 -90.1567 136° Southeast 472 543 37,000  Level Chicago Center
Thu 12:07:28 PM 42.8469 -90.0075 136° Southeast 472 543 37,000  Level Chicago Center
Thu 12:08:30 PM 42.7378 -89.9256 151° Southeast 459 528 37,000  Level Chicago Center
Thu 12:09:32 PM 42.6086 -89.8994 172° South 462 532 37,000  Level Chicago Center
Thu 12:11:09 PM 42.4014 -89.8561 171° South 468 539 37,000  Level Kansas City Center
Thu 12:12:10 PM 42.2728 -89.8258 170° South 469 540 37,000  Level Kansas City Center
Thu 12:13:14 PM 42.1431 -89.7992 171° South 470 541 37,000  Level Kansas City Center
Thu 12:14:15 PM 42.0136 -89.7700 170° South 470 541 37,000  Level Kansas City Center
Thu 12:15:15 PM 41.8844 -89.7422 171° South 471 542 37,000  Level Kansas City Center
Thu 12:16:19 PM 41.7297 -89.7092 171° South 470 541 37,000  Level Kansas City Center
Thu 12:17:19 PM 41.6017 -89.6831 171° South 467 537 37,000  Level Kansas City Center
Thu 12:18:23 PM 41.4728 -89.6542 170° South 468 539 37,000  Level Kansas City Center
Thu 12:19:26 PM 41.3447 -89.6269 171° South 466 536 37,000  Level Kansas City Center
Thu 12:20:27 PM 41.2167 -89.5994 171° South 465 535 37,000  Level Kansas City Center
Thu 12:21:30 PM 41.0889 -89.5733 171° South 464 534 37,000  Level Kansas City Center
Thu 12:22:31 PM 40.9603 -89.5531 173° South 463 533 37,000  Level Kansas City Center
Thu 12:23:32 PM 40.8033 -89.5267 173° South 465 535 37,000  Level Kansas City Center
Thu 12:24:35 PM 40.6708 -89.5053 173° South 469 540 37,000  Level Kansas City Center
Thu 12:25:36 PM 40.5403 -89.4844 173° South 467 537 37,000  Level Kansas City Center
Thu 12:26:39 PM 40.4108 -89.4650 173° South 465 535 37,000  Level Kansas City Center
Thu 12:27:43 PM 40.2819 -89.4450 173° South 463 533 37,000  Level Kansas City Center
Thu 12:28:44 PM 40.1536 -89.4233 173° South 464 534 37,000  Level Kansas City Center
Thu 12:29:45 PM 40.0250 -89.4050 174° South 463 533 37,000  Level Kansas City Center
Thu 12:30:48 PM 39.8969 -89.3836 173° South 462 532 37,000  Level Kansas City Center
Thu 12:31:49 PM 39.7442 -89.3594 173° South 461 531 37,000  Level Kansas City Center
Thu 12:32:52 PM 39.6250 -89.3414 173° South 462 532 37,000  Level Kansas City Center
Thu 12:33:53 PM 39.4983 -89.3206 173° South 460 529 37,000  Level Kansas City Center
Thu 12:34:55 PM 39.3711 -89.3031 174° South 459 528 37,000  Level Kansas City Center
Thu 12:35:58 PM 39.2175 -89.2789 173° South 461 531 37,000  Level Kansas City Center
Thu 12:36:58 PM 39.0864 -89.2597 174° South 454 522 37,000  Level Kansas City Center
Thu 12:38:02 PM 38.9600 -89.2392 173° South 456 525 37,000  Level Kansas City Center
Thu 12:39:04 PM 38.8242 -89.2192 173° South 457 526 37,000  Level Kansas City Center
Thu 12:40:04 PM 38.6986 -89.1992 173° South 455 524 37,000  Level Kansas City Center
Thu 12:41:08 PM 38.5736 -89.1811 174° South 453 521 37,000  Level Kansas City Center
Thu 12:42:09 PM 38.4392 -89.1600 173° South 451 519 37,000  Level Kansas City Center
Thu 12:43:12 PM 38.3164 -89.1250 167° South 453 521 37,000  Level Kansas City Center
Thu 12:44:13 PM 38.1858 -89.0831 166° South 451 519 37,000  Level Kansas City Center
Thu 12:45:16 PM 38.0642 -89.0442 166° South 451 519 37,000  Level Kansas City Center
Thu 12:46:20 PM 37.9469 -89.0064 166° South 457 526 37,000  Level Kansas City Center
Thu 12:47:20 PM 37.8450 -88.9172 145° Southeast 462 532 37,000  Level Kansas City Center
Thu 12:48:22 PM 37.7600 -88.7764 127° Southeast 451 519 37,000  Level Kansas City Center
Thu 12:49:25 PM 37.6711 -88.6417 130° Southeast 449 517 37,000  Level Kansas City Center
Thu 12:50:26 PM 37.5975 -88.5300 130° Southeast 454 522 37,000  Level Memphis Center
Thu 12:51:26 PM 37.5167 -88.4117 131° Southeast 459 528 37,000  Level Memphis Center
Thu 12:52:26 PM 37.4397 -88.2883 128° Southeast 454 522 37,000  Level Memphis Center
Thu 12:53:26 PM 37.3667 -88.1647 127° Southeast 449 517 37,000  Level Memphis Center
Thu 12:54:26 PM 37.2978 -88.0417 125° Southeast 439 505 37,000  Level Memphis Center
Thu 12:55:26 PM 37.2178 -87.8956 124° Southeast 451 519 37,000  Level Memphis Center
Thu 12:56:26 PM 37.1425 -87.7728 128° Southeast 451 519 37,000  Level Memphis Center
Thu 12:57:26 PM 37.0547 -87.6639 135° Southeast 451 519 37,000  Level Memphis Center
Thu 12:58:26 PM 36.9608 -87.5608 139° Southeast 445 512 37,000 -100 Level Memphis Center
Thu 12:59:26 PM 36.8753 -87.4731 141° Southeast 445 512 36,800 -800 Descending Memphis Center
Thu 01:00:26 PM 36.7753 -87.3806 143° Southeast 445 512 35,400 -900 Descending Memphis Center
Thu 01:01:26 PM 36.6750 -87.2886 144° Southeast 445 512 35,000 -200 Descending Memphis Center
Thu 01:02:26 PM 36.5725 -87.1917 143° Southeast 445 512 35,000 -150 Level Memphis Center
Thu 01:03:26 PM 36.4744 -87.1028 144° Southeast 445 512 34,700 -750 Descending Memphis Center
Thu 01:04:26 PM 36.3719 -87.0142 145° Southeast 445 512 33,500 -850 Descending Memphis Center
Thu 01:05:26 PM 36.2583 -86.9003 141° Southeast 455 524 33,000 -250 Descending Memphis Center
Thu 01:06:26 PM 36.1622 -86.8194 146° Southeast 476 548 33,000  Level Memphis Center
Thu 01:07:26 PM 36.0614 -86.7239 143° Southeast 465 535 33,000  Level Memphis Center
Thu 01:09:26 PM 35.8578 -86.5369 143° Southeast 464 534 33,000  Level Atlanta Center
Thu 01:10:26 PM 35.7533 -86.4414 143° Southeast 470 541 33,000  Level Atlanta Center
Thu 01:11:26 PM 35.6486 -86.3464 144° Southeast 470 541 33,000  Level Atlanta Center
Thu 01:12:26 PM 35.5358 -86.2439 144° Southeast 470 541 33,000  Level Atlanta Center
Thu 01:13:26 PM 35.4289 -86.1517 145° Southeast 470 541 33,000  Level Atlanta Center
Thu 01:14:26 PM 35.3283 -86.0600 143° Southeast 470 541 33,000  Level Atlanta Center
Thu 01:15:26 PM 35.2253 -85.9686 144° Southeast 465 535 33,000  Level Atlanta Center
Thu 01:16:26 PM 35.1286 -85.8800 143° Southeast 460 529 33,000  Level Atlanta Center
Thu 01:17:26 PM 35.0236 -85.7939 146° Southeast 455 524 33,000 -450 Level Atlanta Center
Thu 01:18:26 PM 34.9183 -85.7081 146° Southeast 450 518 32,100 -1,700 Descending Atlanta Center
Thu 01:19:26 PM 34.8131 -85.6275 148° Southeast 450 518 29,600 -2,400 Descending Atlanta Center
Thu 01:20:26 PM 34.7117 -85.5500 148° Southeast 450 518 27,300 -2,400 Descending Atlanta Center
Thu 01:21:26 PM 34.6103 -85.4722 148° Southeast 445 512 24,800 -2,450 Descending Atlanta Center
Thu 01:22:26 PM 34.5153 -85.3925 145° Southeast 429 494 22,400 -2,400 Descending Atlanta Center
Thu 01:23:26 PM 34.4158 -85.3206 149° Southeast 429 494 20,000 -2,300 Descending Atlanta Center
Thu 01:24:26 PM 34.3308 -85.2514 146° Southeast 416 479 17,800 -2,250 Descending Atlanta Center
Thu 01:25:26 PM 34.2419 -85.1822 147° Southeast 398 458 15,500 -2,100 Descending Atlanta Center
Thu 01:26:26 PM 34.1550 -85.1081 145° Southeast 387 445 13,600 -1,200 Descending Atlanta Center
Thu 01:27:26 PM 34.0847 -85.0219 135° Southeast 353 406 13,100 -600 Descending Atlanta Center
Thu 01:28:26 PM 34.0161 -84.9736 150° Southeast 306 352 12,400 -1,150 Descending Atlanta Center
Thu 01:29:26 PM 33.9350 -84.9553 169° South 279 321 10,800 -1,450 Descending Atlanta Center
Thu 01:30:26 PM 33.8556 -84.9394 171° South 285 328 9,500 -1,050 Descending Atlanta Center
Thu 01:31:26 PM 33.7764 -84.9311 175° South 290 334 8,700 -1,100 Descending Atlanta Center
Thu 01:32:26 PM 33.6992 -84.9228 175° South 290 334 7,300 -800 Descending Atlanta Center
Thu 01:33:26 PM 33.6411 -84.8897 155° Southeast 246 283 7,100 -218 Descending Atlanta Center
Thu 01:34:16 PM 33.6333 -84.8333 99° East 224 258 6,900 -931 Descending Atlanta TRACON
Thu 01:35:22 PM 33.6333 -84.7333 90° East 223 257 5,300 -1,190 Descending Atlanta TRACON
Thu 01:36:17 PM 33.6333 -84.6667 90° East 223 257 4,500 -873 Descending Atlanta TRACON

Login

Don't have an account? Register now (free) for customized features, flight alerts, and more!